sensor_id;sensor_type;location;lat;lon;timestamp;P1;P2;P0
69756;PMS5003;57239;51.984;5.748;2023-05-07T00:01:45;4;4;
69756;PMS5003;57239;51.984;5.748;2023-05-07T00:02:15;4;4;
69756;PMS5003;57239;51.984;5.748;2023-05-07T00:04:10;4;4;
69756;PMS5003;57239;51.984;5.748;2023-05-07T00:04:41;4;4;
69756;PMS5003;57239;51.984;5.748;2023-05-07T00:05:32;4;4;
69756;PMS5003;57239;51.984;5.748;2023-05-07T00:06:03;4;4;
69756;PMS5003;57239;51.984;5.748;2023-05-07T00:06:35;5;5;
69756;PMS5003;57239;51.984;5.748;2023-05-07T00:07:05;5;5;
69756;PMS5003;57239;51.984;5.748;2023-05-07T00:07:39;4;4;
69756;PMS5003;57239;51.984;5.748;2023-05-07T00:08:10;4;4;
69756;PMS5003;57239;51.984;5.748;2023-05-07T00:08:54;3;3;
69756;PMS5003;57239;51.984;5.748;2023-05-07T00:09:24;3;3;
69756;PMS5003;57239;51.984;5.748;2023-05-07T00:09:54;3;3;
69756;PMS5003;57239;51.984;5.748;2023-05-07T00:10:25;3;3;
69756;PMS5003;57239;51.984;5.748;2023-05-07T00:10:56;3;3;
69756;PMS5003;57239;51.984;5.748;2023-05-07T00:11:26;3;3;
69756;PMS5003;57239;51.984;5.748;2023-05-07T00:11:57;3;3;
69756;PMS5003;57239;51.984;5.748;2023-05-07T00:12:27;3;3;
69756;PMS5003;57239;51.984;5.748;2023-05-07T00:12:57;3;3;
69756;PMS5003;57239;51.984;5.748;2023-05-07T00:13:27;3;3;
69756;PMS5003;57239;51.984;5.748;2023-05-07T00:13:58;4;4;
69756;PMS5003;57239;51.984;5.748;2023-05-07T00:14:28;4;4;
69756;PMS5003;57239;51.984;5.748;2023-05-07T00:14:58;4;4;
69756;PMS5003;57239;51.984;5.748;2023-05-07T00:15:28;4;4;
69756;PMS5003;57239;51.984;5.748;2023-05-07T00:16:20;4;4;
69756;PMS5003;57239;51.984;5.748;2023-05-07T00:16:50;4;4;
69756;PMS5003;57239;51.984;5.748;2023-05-07T00:18:45;4;4;
69756;PMS5003;57239;51.984;5.748;2023-05-07T00:19:15;4;4;
69756;PMS5003;57239;51.984;5.748;2023-05-07T00:21:10;4;4;
69756;PMS5003;57239;51.984;5.748;2023-05-07T00:21:40;4;4;
69756;PMS5003;57239;51.984;5.748;2023-05-07T00:22:38;4;4;
69756;PMS5003;57239;51.984;5.748;2023-05-07T00:23:09;5;5;
69756;PMS5003;57239;51.984;5.748;2023-05-07T00:23:39;7;7;
69756;PMS5003;57239;51.984;5.748;2023-05-07T00:24:09;7;7;
69756;PMS5003;57239;51.984;5.748;2023-05-07T00:27:28;2;2;
69756;PMS5003;57239;51.984;5.748;2023-05-07T00:27:59;5;5;
69756;PMS5003;57239;51.984;5.748;2023-05-07T00:28:29;6;6;
69756;PMS5003;57239;51.984;5.748;2023-05-07T00:28:59;6;6;
69756;PMS5003;57239;51.984;5.748;2023-05-07T00:29:29;unavailable;unavailable;
69756;PMS5003;57239;51.984;5.748;2023-05-07T00:30:00;6;6;
69756;PMS5003;57239;51.984;5.748;2023-05-07T00:30:30;5;5;
69756;PMS5003;57239;51.984;5.748;2023-05-07T00:31:00;5;5;
69756;PMS5003;57239;51.984;5.748;2023-05-07T00:31:30;5;5;
69756;PMS5003;57239;51.984;5.748;2023-05-07T00:33:15;5;5;
69756;PMS5003;57239;51.984;5.748;2023-05-07T00:33:45;5;5;
69756;PMS5003;57239;51.984;5.748;2023-05-07T00:35:41;4;4;
69756;PMS5003;57239;51.984;5.748;2023-05-07T00:36:12;4;4;
69756;PMS5003;57239;51.984;5.748;2023-05-07T00:37:30;4;4;
69756;PMS5003;57239;51.984;5.748;2023-05-07T00:38:00;6;3;
69756;PMS5003;57239;51.984;5.748;2023-05-07T00:38:30;6;3;
69756;PMS5003;57239;51.984;5.748;2023-05-07T00:39:01;6;3;
69756;PMS5003;57239;51.984;5.748;2023-05-07T00:40:30;4;4;
69756;PMS5003;57239;51.984;5.748;2023-05-07T00:41:00;4;4;
69756;PMS5003;57239;51.984;5.748;2023-05-07T00:42:25;4;4;
69756;PMS5003;57239;51.984;5.748;2023-05-07T00:42:56;4;4;
69756;PMS5003;57239;51.984;5.748;2023-05-07T00:43:26;4;4;
69756;PMS5003;57239;51.984;5.748;2023-05-07T00:43:56;4;4;
69756;PMS5003;57239;51.984;5.748;2023-05-07T00:44:26;4;4;
69756;PMS5003;57239;51.984;5.748;2023-05-07T00:44:57;4;4;
69756;PMS5003;57239;51.984;5.748;2023-05-07T00:45:27;4;4;
69756;PMS5003;57239;51.984;5.748;2023-05-07T00:46:16;5;5;
69756;PMS5003;57239;51.984;5.748;2023-05-07T00:46:47;5;5;
69756;PMS5003;57239;51.984;5.748;2023-05-07T00:47:17;5;5;
69756;PMS5003;57239;51.984;5.748;2023-05-07T00:48:36;4;4;
69756;PMS5003;57239;51.984;5.748;2023-05-07T00:49:07;4;4;
69756;PMS5003;57239;51.984;5.748;2023-05-07T00:50:24;2;2;
69756;PMS5003;57239;51.984;5.748;2023-05-07T00:50:55;2;2;
69756;PMS5003;57239;51.984;5.748;2023-05-07T00:53:08;3;3;
69756;PMS5003;57239;51.984;5.748;2023-05-07T00:53:38;3;3;
69756;PMS5003;57239;51.984;5.748;2023-05-07T00:54:57;2;2;
69756;PMS5003;57239;51.984;5.748;2023-05-07T00:55:28;3;3;
69756;PMS5003;57239;51.984;5.748;2023-05-07T00:55:59;3;3;
69756;PMS5003;57239;51.984;5.748;2023-05-07T00:56:29;3;3;
69756;PMS5003;57239;51.984;5.748;2023-05-07T00:57:02;4;4;
69756;PMS5003;57239;51.984;5.748;2023-05-07T00:57:34;4;4;
69756;PMS5003;57239;51.984;5.748;2023-05-07T00:58:06;4;4;
69756;PMS5003;57239;51.984;5.748;2023-05-07T00:58:36;4;4;
69756;PMS5003;57239;51.984;5.748;2023-05-07T00:59:42;6;6;
69756;PMS5003;57239;51.984;5.748;2023-05-07T01:00:13;4;4;
69756;PMS5003;57239;51.984;5.748;2023-05-07T01:00:43;3;3;
69756;PMS5003;57239;51.984;5.748;2023-05-07T01:01:13;3;3;
69756;PMS5003;57239;51.984;5.748;2023-05-07T01:01:44;3;3;
69756;PMS5003;57239;51.984;5.748;2023-05-07T01:02:14;3;3;
69756;PMS5003;57239;51.984;5.748;2023-05-07T01:03:31;3;3;
69756;PMS5003;57239;51.984;5.748;2023-05-07T01:04:01;3;3;
69756;PMS5003;57239;51.984;5.748;2023-05-07T01:05:34;3;3;
69756;PMS5003;57239;51.984;5.748;2023-05-07T01:06:06;3;3;
69756;PMS5003;57239;51.984;5.748;2023-05-07T01:07:29;3;3;
69756;PMS5003;57239;51.984;5.748;2023-05-07T01:08:01;5;5;
69756;PMS5003;57239;51.984;5.748;2023-05-07T01:08:31;5;5;
69756;PMS5003;57239;51.984;5.748;2023-05-07T01:09:02;5;5;
69756;PMS5003;57239;51.984;5.748;2023-05-07T01:09:33;5;5;
69756;PMS5003;57239;51.984;5.748;2023-05-07T01:10:11;2;2;
69756;PMS5003;57239;51.984;5.748;2023-05-07T01:10:42;2;2;
69756;PMS5003;57239;51.984;5.748;2023-05-07T01:11:13;2;2;
69756;PMS5003;57239;51.984;5.748;2023-05-07T01:11:44;2;2;
69756;PMS5003;57239;51.984;5.748;2023-05-07T01:12:14;2;2;
69756;PMS5003;57239;51.984;5.748;2023-05-07T01:12:46;2;2;
69756;PMS5003;57239;51.984;5.748;2023-05-07T01:13:50;3;3;
69756;PMS5003;57239;51.984;5.748;2023-05-07T01:14:20;3;3;
69756;PMS5003;57239;51.984;5.748;2023-05-07T01:15:32;3;3;
69756;PMS5003;57239;51.984;5.748;2023-05-07T01:16:02;3;3;
69756;PMS5003;57239;51.984;5.748;2023-05-07T01:16:33;3;3;
69756;PMS5003;57239;51.984;5.748;2023-05-07T01:17:03;3;3;
69756;PMS5003;57239;51.984;5.748;2023-05-07T01:18:01;3;3;
69756;PMS5003;57239;51.984;5.748;2023-05-07T01:18:32;3;3;
69756;PMS5003;57239;51.984;5.748;2023-05-07T01:19:03;3;3;
69756;PMS5003;57239;51.984;5.748;2023-05-07T01:19:33;3;3;
69756;PMS5003;57239;51.984;5.748;2023-05-07T01:21:06;4;4;
69756;PMS5003;57239;51.984;5.748;2023-05-07T01:21:37;4;4;
69756;PMS5003;57239;51.984;5.748;2023-05-07T01:22:09;4;4;
69756;PMS5003;57239;51.984;5.748;2023-05-07T01:22:40;4;4;
69756;PMS5003;57239;51.984;5.748;2023-05-07T01:23:30;4;4;
69756;PMS5003;57239;51.984;5.748;2023-05-07T01:24:00;4;4;
69756;PMS5003;57239;51.984;5.748;2023-05-07T01:25:55;3;3;
69756;PMS5003;57239;51.984;5.748;2023-05-07T01:26:25;3;3;
69756;PMS5003;57239;51.984;5.748;2023-05-07T01:26:55;3;3;
69756;PMS5003;57239;51.984;5.748;2023-05-07T01:27:27;4;4;
69756;PMS5003;57239;51.984;5.748;2023-05-07T01:27:57;4;4;
69756;PMS5003;57239;51.984;5.748;2023-05-07T01:29:52;4;4;
69756;PMS5003;57239;51.984;5.748;2023-05-07T01:30:22;4;4;
69756;PMS5003;57239;51.984;5.748;2023-05-07T01:30:54;3;3;
69756;PMS5003;57239;51.984;5.748;2023-05-07T01:31:26;3;3;
69756;PMS5003;57239;51.984;5.748;2023-05-07T01:32:45;3;3;
69756;PMS5003;57239;51.984;5.748;2023-05-07T01:33:20;3;3;
69756;PMS5003;57239;51.984;5.748;2023-05-07T01:35:11;2;2;
69756;PMS5003;57239;51.984;5.748;2023-05-07T01:35:45;2;2;
69756;PMS5003;57239;51.984;5.748;2023-05-07T01:36:42;3;3;
69756;PMS5003;57239;51.984;5.748;2023-05-07T01:37:13;3;3;
69756;PMS5003;57239;51.984;5.748;2023-05-07T01:38:39;3;3;
69756;PMS5003;57239;51.984;5.748;2023-05-07T01:39:11;3;3;
69756;PMS5003;57239;51.984;5.748;2023-05-07T01:41:03;4;4;
69756;PMS5003;57239;51.984;5.748;2023-05-07T01:41:34;4;4;
69756;PMS5003;57239;51.984;5.748;2023-05-07T01:43:28;3;3;
69756;PMS5003;57239;51.984;5.748;2023-05-07T01:44:00;3;3;
69756;PMS5003;57239;51.984;5.748;2023-05-07T01:44:33;3;3;
69756;PMS5003;57239;51.984;5.748;2023-05-07T01:45:04;4;4;
69756;PMS5003;57239;51.984;5.748;2023-05-07T01:45:35;4;4;
69756;PMS5003;57239;51.984;5.748;2023-05-07T01:46:06;4;4;
69756;PMS5003;57239;51.984;5.748;2023-05-07T01:46:54;4;4;
69756;PMS5003;57239;51.984;5.748;2023-05-07T01:47:24;4;4;
69756;PMS5003;57239;51.984;5.748;2023-05-07T01:48:21;4;4;
69756;PMS5003;57239;51.984;5.748;2023-05-07T01:48:52;unavailable;4;
69756;PMS5003;57239;51.984;5.748;2023-05-07T01:49:22;3;3;
69756;PMS5003;57239;51.984;5.748;2023-05-07T01:49:53;3;3;
69756;PMS5003;57239;51.984;5.748;2023-05-07T01:50:23;3;3;
69756;PMS5003;57239;51.984;5.748;2023-05-07T01:50:53;2;2;
69756;PMS5003;57239;51.984;5.748;2023-05-07T01:51:24;2;2;
69756;PMS5003;57239;51.984;5.748;2023-05-07T01:51:55;2;2;
69756;PMS5003;57239;51.984;5.748;2023-05-07T01:52:27;2;2;
69756;PMS5003;57239;51.984;5.748;2023-05-07T01:52:57;4;4;
69756;PMS5003;57239;51.984;5.748;2023-05-07T01:53:28;4;4;
69756;PMS5003;57239;51.984;5.748;2023-05-07T01:53:58;4;4;
69756;PMS5003;57239;51.984;5.748;2023-05-07T01:54:28;2;2;
69756;PMS5003;57239;51.984;5.748;2023-05-07T01:54:59;2;2;
69756;PMS5003;57239;51.984;5.748;2023-05-07T01:55:29;2;2;
69756;PMS5003;57239;51.984;5.748;2023-05-07T01:55:59;4;4;
69756;PMS5003;57239;51.984;5.748;2023-05-07T01:56:30;4;4;
69756;PMS5003;57239;51.984;5.748;2023-05-07T01:57:00;4;4;
69756;PMS5003;57239;51.984;5.748;2023-05-07T01:57:30;1;1;
69756;PMS5003;57239;51.984;5.748;2023-05-07T01:58:00;1;1;
69756;PMS5003;57239;51.984;5.748;2023-05-07T01:58:30;1;1;
69756;PMS5003;57239;51.984;5.748;2023-05-07T01:59:01;1;1;
69756;PMS5003;57239;51.984;5.748;2023-05-07T01:59:35;2;2;
69756;PMS5003;57239;51.984;5.748;2023-05-07T02:00:07;2;2;
69756;PMS5003;57239;51.984;5.748;2023-05-07T02:01:52;4;4;
69756;PMS5003;57239;51.984;5.748;2023-05-07T02:02:23;4;4;
69756;PMS5003;57239;51.984;5.748;2023-05-07T02:03:06;4;4;
69756;PMS5003;57239;51.984;5.748;2023-05-07T02:03:36;4;4;
69756;PMS5003;57239;51.984;5.748;2023-05-07T02:04:06;3;3;
69756;PMS5003;57239;51.984;5.748;2023-05-07T02:04:36;3;3;
69756;PMS5003;57239;51.984;5.748;2023-05-07T02:05:07;3;3;
69756;PMS5003;57239;51.984;5.748;2023-05-07T02:05:37;2;2;
69756;PMS5003;57239;51.984;5.748;2023-05-07T02:06:08;2;2;
69756;PMS5003;57239;51.984;5.748;2023-05-07T02:06:38;2;2;
69756;PMS5003;57239;51.984;5.748;2023-05-07T02:07:08;2;2;
69756;PMS5003;57239;51.984;5.748;2023-05-07T02:07:39;2;2;
69756;PMS5003;57239;51.984;5.748;2023-05-07T02:08:50;1;1;
69756;PMS5003;57239;51.984;5.748;2023-05-07T02:09:20;1;1;
69756;PMS5003;57239;51.984;5.748;2023-05-07T02:09:51;1;1;
69756;PMS5003;57239;51.984;5.748;2023-05-07T02:10:21;1;1;
69756;PMS5003;57239;51.984;5.748;2023-05-07T02:11:15;4;4;
69756;PMS5003;57239;51.984;5.748;2023-05-07T02:11:45;4;4;
69756;PMS5003;57239;51.984;5.748;2023-05-07T02:13:41;2;2;
69756;PMS5003;57239;51.984;5.748;2023-05-07T02:14:11;2;2;
69756;PMS5003;57239;51.984;5.748;2023-05-07T02:16:05;4;4;
69756;PMS5003;57239;51.984;5.748;2023-05-07T02:16:36;4;4;
69756;PMS5003;57239;51.984;5.748;2023-05-07T02:18:30;3;3;
69756;PMS5003;57239;51.984;5.748;2023-05-07T02:19:00;3;3;
69756;PMS5003;57239;51.984;5.748;2023-05-07T02:20:55;4;4;
69756;PMS5003;57239;51.984;5.748;2023-05-07T02:21:25;4;4;
69756;PMS5003;57239;51.984;5.748;2023-05-07T02:23:23;1;1;
69756;PMS5003;57239;51.984;5.748;2023-05-07T02:23:54;1;1;
69756;PMS5003;57239;51.984;5.748;2023-05-07T02:24:24;1;1;
69756;PMS5003;57239;51.984;5.748;2023-05-07T02:25:45;3;3;
69756;PMS5003;57239;51.984;5.748;2023-05-07T02:26:15;3;3;
69756;PMS5003;57239;51.984;5.748;2023-05-07T02:28:10;4;4;
69756;PMS5003;57239;51.984;5.748;2023-05-07T02:28:40;4;4;
69756;PMS5003;57239;51.984;5.748;2023-05-07T02:30:37;3;3;
69756;PMS5003;57239;51.984;5.748;2023-05-07T02:31:07;3;3;
69756;PMS5003;57239;51.984;5.748;2023-05-07T02:31:37;3;3;
69756;PMS5003;57239;51.984;5.748;2023-05-07T02:32:07;3;3;
69756;PMS5003;57239;51.984;5.748;2023-05-07T02:32:38;4;4;
69756;PMS5003;57239;51.984;5.748;2023-05-07T02:33:08;4;4;
69756;PMS5003;57239;51.984;5.748;2023-05-07T02:33:38;2;2;
69756;PMS5003;57239;51.984;5.748;2023-05-07T02:34:08;2;2;
69756;PMS5003;57239;51.984;5.748;2023-05-07T02:34:39;1;1;
69756;PMS5003;57239;51.984;5.748;2023-05-07T02:35:09;1;1;
69756;PMS5003;57239;51.984;5.748;2023-05-07T02:35:39;1;1;
69756;PMS5003;57239;51.984;5.748;2023-05-07T02:36:10;1;1;
69756;PMS5003;57239;51.984;5.748;2023-05-07T02:36:40;1;1;
69756;PMS5003;57239;51.984;5.748;2023-05-07T02:37:21;2;2;
69756;PMS5003;57239;51.984;5.748;2023-05-07T02:37:51;2;2;
69756;PMS5003;57239;51.984;5.748;2023-05-07T02:39:55;2;2;
69756;PMS5003;57239;51.984;5.748;2023-05-07T02:40:25;2;2;
69756;PMS5003;57239;51.984;5.748;2023-05-07T02:42:11;1;1;
69756;PMS5003;57239;51.984;5.748;2023-05-07T02:42:41;1;1;
69756;PMS5003;57239;51.984;5.748;2023-05-07T02:44:19;0;0;
69756;PMS5003;57239;51.984;5.748;2023-05-07T02:44:49;0;0;
69756;PMS5003;57239;51.984;5.748;2023-05-07T02:45:19;4;4;
69756;PMS5003;57239;51.984;5.748;2023-05-07T02:46:00;4;4;
69756;PMS5003;57239;51.984;5.748;2023-05-07T02:46:30;2;2;
69756;PMS5003;57239;51.984;5.748;2023-05-07T02:47:00;2;2;
69756;PMS5003;57239;51.984;5.748;2023-05-07T02:47:31;3;3;
69756;PMS5003;57239;51.984;5.748;2023-05-07T02:48:01;3;3;
69756;PMS5003;57239;51.984;5.748;2023-05-07T02:48:31;3;3;
69756;PMS5003;57239;51.984;5.748;2023-05-07T02:49:02;3;3;
69756;PMS5003;57239;51.984;5.748;2023-05-07T02:50:15;3;3;
69756;PMS5003;57239;51.984;5.748;2023-05-07T02:50:45;3;3;
69756;PMS5003;57239;51.984;5.748;2023-05-07T02:51:19;unavailable;unavailable;
69756;PMS5003;57239;51.984;5.748;2023-05-07T02:51:49;3;3;
69756;PMS5003;57239;51.984;5.748;2023-05-07T02:52:19;3;3;
69756;PMS5003;57239;51.984;5.748;2023-05-07T02:52:50;3;3;
69756;PMS5003;57239;51.984;5.748;2023-05-07T02:53:20;3;3;
69756;PMS5003;57239;51.984;5.748;2023-05-07T02:53:50;3;3;
69756;PMS5003;57239;51.984;5.748;2023-05-07T02:54:20;3;3;
69756;PMS5003;57239;51.984;5.748;2023-05-07T02:54:50;3;3;
69756;PMS5003;57239;51.984;5.748;2023-05-07T02:55:21;3;3;
69756;PMS5003;57239;51.984;5.748;2023-05-07T02:55:52;3;3;
69756;PMS5003;57239;51.984;5.748;2023-05-07T02:56:22;3;3;
69756;PMS5003;57239;51.984;5.748;2023-05-07T02:56:52;3;3;
69756;PMS5003;57239;51.984;5.748;2023-05-07T02:57:40;3;3;
69756;PMS5003;57239;51.984;5.748;2023-05-07T02:58:10;3;3;
69756;PMS5003;57239;51.984;5.748;2023-05-07T02:58:40;3;3;
69756;PMS5003;57239;51.984;5.748;2023-05-07T02:59:11;3;3;
69756;PMS5003;57239;51.984;5.748;2023-05-07T02:59:41;3;3;
69756;PMS5003;57239;51.984;5.748;2023-05-07T03:00:13;3;3;
69756;PMS5003;57239;51.984;5.748;2023-05-07T03:01:10;2;2;
69756;PMS5003;57239;51.984;5.748;2023-05-07T03:01:41;2;2;
69756;PMS5003;57239;51.984;5.748;2023-05-07T03:03:09;3;3;
69756;PMS5003;57239;51.984;5.748;2023-05-07T03:03:39;3;3;
69756;PMS5003;57239;51.984;5.748;2023-05-07T03:04:44;3;3;
69756;PMS5003;57239;51.984;5.748;2023-05-07T03:05:14;2;2;
69756;PMS5003;57239;51.984;5.748;2023-05-07T03:05:44;2;2;
69756;PMS5003;57239;51.984;5.748;2023-05-07T03:06:15;2;2;
69756;PMS5003;57239;51.984;5.748;2023-05-07T03:07:52;2;2;
69756;PMS5003;57239;51.984;5.748;2023-05-07T03:08:22;2;2;
69756;PMS5003;57239;51.984;5.748;2023-05-07T03:10:09;1;1;
69756;PMS5003;57239;51.984;5.748;2023-05-07T03:10:39;1;1;
69756;PMS5003;57239;51.984;5.748;2023-05-07T03:11:27;1;1;
69756;PMS5003;57239;51.984;5.748;2023-05-07T03:11:58;1;1;
69756;PMS5003;57239;51.984;5.748;2023-05-07T03:12:42;3;3;
69756;PMS5003;57239;51.984;5.748;2023-05-07T03:13:13;3;3;
69756;PMS5003;57239;51.984;5.748;2023-05-07T03:13:43;3;3;
69756;PMS5003;57239;51.984;5.748;2023-05-07T03:14:13;3;3;
69756;PMS5003;57239;51.984;5.748;2023-05-07T03:14:43;3;3;
69756;PMS5003;57239;51.984;5.748;2023-05-07T03:15:14;3;3;
69756;PMS5003;57239;51.984;5.748;2023-05-07T03:15:44;3;3;
69756;PMS5003;57239;51.984;5.748;2023-05-07T03:16:15;3;3;
69756;PMS5003;57239;51.984;5.748;2023-05-07T03:16:45;3;3;
69756;PMS5003;57239;51.984;5.748;2023-05-07T03:17:16;2;2;
69756;PMS5003;57239;51.984;5.748;2023-05-07T03:17:46;2;2;
69756;PMS5003;57239;51.984;5.748;2023-05-07T03:18:16;2;2;
69756;PMS5003;57239;51.984;5.748;2023-05-07T03:20:00;2;2;
69756;PMS5003;57239;51.984;5.748;2023-05-07T03:20:31;2;2;
69756;PMS5003;57239;51.984;5.748;2023-05-07T03:22:25;2;2;
69756;PMS5003;57239;51.984;5.748;2023-05-07T03:22:56;2;2;
69756;PMS5003;57239;51.984;5.748;2023-05-07T03:23:30;2;2;
69756;PMS5003;57239;51.984;5.748;2023-05-07T03:24:01;2;2;
69756;PMS5003;57239;51.984;5.748;2023-05-07T03:24:50;3;3;
69756;PMS5003;57239;51.984;5.748;2023-05-07T03:25:21;3;3;
69756;PMS5003;57239;51.984;5.748;2023-05-07T03:27:00;2;2;
69756;PMS5003;57239;51.984;5.748;2023-05-07T03:27:31;2;2;
69756;PMS5003;57239;51.984;5.748;2023-05-07T03:28:01;2;2;
69756;PMS5003;57239;51.984;5.748;2023-05-07T03:28:31;2;2;
69756;PMS5003;57239;51.984;5.748;2023-05-07T03:29:01;2;2;
69756;PMS5003;57239;51.984;5.748;2023-05-07T03:29:32;3;3;
69756;PMS5003;57239;51.984;5.748;2023-05-07T03:30:02;3;3;
69756;PMS5003;57239;51.984;5.748;2023-05-07T03:30:33;3;3;
69756;PMS5003;57239;51.984;5.748;2023-05-07T03:31:03;3;3;
69756;PMS5003;57239;51.984;5.748;2023-05-07T03:31:33;3;3;
69756;PMS5003;57239;51.984;5.748;2023-05-07T03:32:04;0;0;
69756;PMS5003;57239;51.984;5.748;2023-05-07T03:32:34;0;0;
69756;PMS5003;57239;51.984;5.748;2023-05-07T03:33:05;0;0;
69756;PMS5003;57239;51.984;5.748;2023-05-07T03:34:34;2;2;
69756;PMS5003;57239;51.984;5.748;2023-05-07T03:35:04;2;2;
69756;PMS5003;57239;51.984;5.748;2023-05-07T03:35:35;2;2;
69756;PMS5003;57239;51.984;5.748;2023-05-07T03:36:05;2;2;
69756;PMS5003;57239;51.984;5.748;2023-05-07T03:36:36;1;1;
69756;PMS5003;57239;51.984;5.748;2023-05-07T03:37:06;1;1;
69756;PMS5003;57239;51.984;5.748;2023-05-07T03:37:37;1;1;
69756;PMS5003;57239;51.984;5.748;2023-05-07T03:38:57;2;2;
69756;PMS5003;57239;51.984;5.748;2023-05-07T03:39:27;2;2;
69756;PMS5003;57239;51.984;5.748;2023-05-07T03:39:57;2;2;
69756;PMS5003;57239;51.984;5.748;2023-05-07T03:40:27;1;1;
69756;PMS5003;57239;51.984;5.748;2023-05-07T03:40:58;1;1;
69756;PMS5003;57239;51.984;5.748;2023-05-07T03:41:28;2;2;
69756;PMS5003;57239;51.984;5.748;2023-05-07T03:41:58;2;2;
69756;PMS5003;57239;51.984;5.748;2023-05-07T03:42:28;2;2;
69756;PMS5003;57239;51.984;5.748;2023-05-07T03:42:59;3;3;
69756;PMS5003;57239;51.984;5.748;2023-05-07T03:43:30;3;3;
69756;PMS5003;57239;51.984;5.748;2023-05-07T03:44:00;3;3;
69756;PMS5003;57239;51.984;5.748;2023-05-07T03:44:30;2;2;
69756;PMS5003;57239;51.984;5.748;2023-05-07T03:45:00;2;2;
69756;PMS5003;57239;51.984;5.748;2023-05-07T03:45:31;2;2;
69756;PMS5003;57239;51.984;5.748;2023-05-07T03:46:23;2;2;
69756;PMS5003;57239;51.984;5.748;2023-05-07T03:46:53;3;3;
69756;PMS5003;57239;51.984;5.748;2023-05-07T03:47:24;3;3;
69756;PMS5003;57239;51.984;5.748;2023-05-07T03:47:54;3;3;
69756;PMS5003;57239;51.984;5.748;2023-05-07T03:49:00;3;3;
69756;PMS5003;57239;51.984;5.748;2023-05-07T03:49:30;2;2;
69756;PMS5003;57239;51.984;5.748;2023-05-07T03:50:00;2;2;
69756;PMS5003;57239;51.984;5.748;2023-05-07T03:50:30;2;2;
69756;PMS5003;57239;51.984;5.748;2023-05-07T03:51:01;3;3;
69756;PMS5003;57239;51.984;5.748;2023-05-07T03:51:31;3;3;
69756;PMS5003;57239;51.984;5.748;2023-05-07T03:52:01;3;3;
69756;PMS5003;57239;51.984;5.748;2023-05-07T03:52:31;3;3;
69756;PMS5003;57239;51.984;5.748;2023-05-07T03:53:18;3;3;
69756;PMS5003;57239;51.984;5.748;2023-05-07T03:53:49;3;3;
69756;PMS5003;57239;51.984;5.748;2023-05-07T03:54:36;1;1;
69756;PMS5003;57239;51.984;5.748;2023-05-07T03:55:07;1;1;
69756;PMS5003;57239;51.984;5.748;2023-05-07T03:56:29;1;1;
69756;PMS5003;57239;51.984;5.748;2023-05-07T03:56:59;1;1;
69756;PMS5003;57239;51.984;5.748;2023-05-07T03:57:29;2;2;
69756;PMS5003;57239;51.984;5.748;2023-05-07T03:57:59;2;2;
69756;PMS5003;57239;51.984;5.748;2023-05-07T03:58:29;2;2;
69756;PMS5003;57239;51.984;5.748;2023-05-07T03:59:00;1;1;
69756;PMS5003;57239;51.984;5.748;2023-05-07T03:59:30;1;1;
69756;PMS5003;57239;51.984;5.748;2023-05-07T04:00:01;1;1;
69756;PMS5003;57239;51.984;5.748;2023-05-07T04:00:31;1;1;
69756;PMS5003;57239;51.984;5.748;2023-05-07T04:01:22;0;0;
69756;PMS5003;57239;51.984;5.748;2023-05-07T04:01:52;0;0;
69756;PMS5003;57239;51.984;5.748;2023-05-07T04:03:47;1;1;
69756;PMS5003;57239;51.984;5.748;2023-05-07T04:04:17;1;1;
69756;PMS5003;57239;51.984;5.748;2023-05-07T04:06:11;1;1;
69756;PMS5003;57239;51.984;5.748;2023-05-07T04:06:41;1;1;
69756;PMS5003;57239;51.984;5.748;2023-05-07T04:07:25;0;0;
69756;PMS5003;57239;51.984;5.748;2023-05-07T04:07:58;0;0;
69756;PMS5003;57239;51.984;5.748;2023-05-07T04:09:50;2;2;
69756;PMS5003;57239;51.984;5.748;2023-05-07T04:10:21;2;2;
69756;PMS5003;57239;51.984;5.748;2023-05-07T04:11:26;2;2;
69756;PMS5003;57239;51.984;5.748;2023-05-07T04:11:57;2;2;
69756;PMS5003;57239;51.984;5.748;2023-05-07T04:12:27;2;2;
69756;PMS5003;57239;51.984;5.748;2023-05-07T04:12:57;2;2;
69756;PMS5003;57239;51.984;5.748;2023-05-07T04:14:54;3;3;
69756;PMS5003;57239;51.984;5.748;2023-05-07T04:15:24;3;3;
69756;PMS5003;57239;51.984;5.748;2023-05-07T04:15:55;3;3;
69756;PMS5003;57239;51.984;5.748;2023-05-07T04:16:25;3;3;
69756;PMS5003;57239;51.984;5.748;2023-05-07T04:17:09;0;0;
69756;PMS5003;57239;51.984;5.748;2023-05-07T04:17:39;0;0;
69756;PMS5003;57239;51.984;5.748;2023-05-07T04:18:13;3;3;
69756;PMS5003;57239;51.984;5.748;2023-05-07T04:18:43;unavailable;unavailable;
69756;PMS5003;57239;51.984;5.748;2023-05-07T04:19:13;2;2;
69756;PMS5003;57239;51.984;5.748;2023-05-07T04:19:43;2;2;
69756;PMS5003;57239;51.984;5.748;2023-05-07T04:20:40;2;2;
69756;PMS5003;57239;51.984;5.748;2023-05-07T04:21:15;2;2;
69756;PMS5003;57239;51.984;5.748;2023-05-07T04:21:45;3;3;
69756;PMS5003;57239;51.984;5.748;2023-05-07T04:22:15;3;3;
69756;PMS5003;57239;51.984;5.748;2023-05-07T04:22:45;3;3;
69756;PMS5003;57239;51.984;5.748;2023-05-07T04:23:16;3;3;
69756;PMS5003;57239;51.984;5.748;2023-05-07T04:23:46;3;3;
69756;PMS5003;57239;51.984;5.748;2023-05-07T04:24:16;3;3;
69756;PMS5003;57239;51.984;5.748;2023-05-07T04:24:47;3;3;
69756;PMS5003;57239;51.984;5.748;2023-05-07T04:25:17;3;3;
69756;PMS5003;57239;51.984;5.748;2023-05-07T04:26:32;1;1;
69756;PMS5003;57239;51.984;5.748;2023-05-07T04:27:02;2;2;
69756;PMS5003;57239;51.984;5.748;2023-05-07T04:27:33;2;2;
69756;PMS5003;57239;51.984;5.748;2023-05-07T04:28:03;2;2;
69756;PMS5003;57239;51.984;5.748;2023-05-07T04:28:34;2;2;
69756;PMS5003;57239;51.984;5.748;2023-05-07T04:29:04;2;2;
69756;PMS5003;57239;51.984;5.748;2023-05-07T04:29:34;2;2;
69756;PMS5003;57239;51.984;5.748;2023-05-07T04:30:05;2;2;
69756;PMS5003;57239;51.984;5.748;2023-05-07T04:30:36;2;2;
69756;PMS5003;57239;51.984;5.748;2023-05-07T04:31:06;2;2;
69756;PMS5003;57239;51.984;5.748;2023-05-07T04:31:37;2;2;
69756;PMS5003;57239;51.984;5.748;2023-05-07T04:32:07;2;2;
69756;PMS5003;57239;51.984;5.748;2023-05-07T04:32:38;2;2;
69756;PMS5003;57239;51.984;5.748;2023-05-07T04:33:08;3;3;
69756;PMS5003;57239;51.984;5.748;2023-05-07T04:33:38;4;4;
69756;PMS5003;57239;51.984;5.748;2023-05-07T04:34:08;4;4;
69756;PMS5003;57239;51.984;5.748;2023-05-07T04:34:38;4;4;
69756;PMS5003;57239;51.984;5.748;2023-05-07T04:35:29;4;4;
69756;PMS5003;57239;51.984;5.748;2023-05-07T04:36:01;2;2;
69756;PMS5003;57239;51.984;5.748;2023-05-07T04:36:31;2;2;
69756;PMS5003;57239;51.984;5.748;2023-05-07T04:37:02;2;2;
69756;PMS5003;57239;51.984;5.748;2023-05-07T04:38:25;2;2;
69756;PMS5003;57239;51.984;5.748;2023-05-07T04:38:55;2;2;
69756;PMS5003;57239;51.984;5.748;2023-05-07T04:39:26;2;2;
69756;PMS5003;57239;51.984;5.748;2023-05-07T04:39:56;2;2;
69756;PMS5003;57239;51.984;5.748;2023-05-07T04:40:35;3;3;
69756;PMS5003;57239;51.984;5.748;2023-05-07T04:41:06;3;3;
69756;PMS5003;57239;51.984;5.748;2023-05-07T04:41:36;3;3;
69756;PMS5003;57239;51.984;5.748;2023-05-07T04:42:06;2;2;
69756;PMS5003;57239;51.984;5.748;2023-05-07T04:42:37;2;2;
69756;PMS5003;57239;51.984;5.748;2023-05-07T04:43:07;2;2;
69756;PMS5003;57239;51.984;5.748;2023-05-07T04:43:37;2;2;
69756;PMS5003;57239;51.984;5.748;2023-05-07T04:44:07;2;2;
69756;PMS5003;57239;51.984;5.748;2023-05-07T04:44:38;2;2;
69756;PMS5003;57239;51.984;5.748;2023-05-07T04:45:08;1;1;
69756;PMS5003;57239;51.984;5.748;2023-05-07T04:45:39;1;1;
69756;PMS5003;57239;51.984;5.748;2023-05-07T04:46:09;1;1;